createdAt,value
2019-04-20T00:01:19.898Z,54.90
2019-04-20T00:02:23.738Z,55.10
2019-04-20T00:03:32.243Z,55.40
2019-04-20T00:04:35.694Z,55.50
2019-04-20T00:05:41.286Z,55.50
2019-04-20T00:06:49.786Z,55.80
2019-04-20T00:07:52.264Z,55.80
2019-04-20T00:09:03.289Z,55.80
2019-04-20T00:10:08.757Z,56.00
2019-04-20T00:11:17.272Z,56.10
2019-04-20T00:12:20.259Z,56.20
2019-04-20T00:13:30.819Z,56.40
2019-04-20T00:14:29.630Z,56.40
2019-04-20T00:15:32.314Z,56.60
2019-04-20T00:16:37.806Z,56.50
2019-04-20T00:17:50.819Z,56.40
2019-04-20T00:18:52.119Z,56.40
2019-04-20T00:19:57.269Z,56.60
2019-04-20T00:21:18.079Z,56.40
2019-04-20T00:22:47.051Z,56.40
2019-04-20T00:23:51.448Z,56.40
2019-04-20T00:25:18.644Z,56.90
2019-04-20T00:27:01.960Z,57.00
2019-04-20T00:28:15.251Z,57.10
2019-04-20T00:29:22.247Z,57.20
2019-04-20T00:30:36.629Z,57.30
2019-04-20T00:31:29.781Z,57.40
2019-04-20T00:32:35.963Z,57.50
2019-04-20T00:33:41.010Z,57.60
2019-04-20T00:34:35.592Z,57.60
2019-04-20T00:35:37.932Z,57.70
2019-04-20T00:36:43.330Z,57.90
2019-04-20T00:37:48.717Z,57.80
2019-04-20T00:38:56.900Z,57.60
2019-04-20T00:39:59.557Z,57.40
2019-04-20T00:41:07.487Z,57.20
2019-04-20T00:42:13.378Z,57.30
2019-04-20T00:43:22.077Z,57.50
2019-04-20T00:44:27.546Z,57.80
2019-04-20T00:45:31.632Z,57.80
2019-04-20T00:46:41.933Z,57.80
2019-04-20T00:47:48.891Z,57.90
2019-04-20T00:48:53.974Z,58.00
2019-04-20T00:50:05.502Z,58.10
2019-04-20T00:51:17.403Z,58.10
2019-04-20T00:52:31.081Z,58.40
2019-04-20T00:53:17.086Z,58.40
2019-04-20T00:54:15.857Z,58.70
2019-04-20T00:55:20.969Z,58.60
2019-04-20T00:56:26.391Z,58.70
2019-04-20T00:57:41.859Z,58.80
2019-04-20T00:58:50.762Z,58.80
2019-04-20T01:00:04.992Z,59.20
2019-04-20T01:01:07.424Z,58.90
2019-04-20T01:02:13.159Z,58.90
2019-04-20T01:03:15.841Z,59.00
2019-04-20T01:04:25.424Z,59.10
2019-04-20T01:05:49.769Z,59.10
2019-04-20T01:07:01.559Z,59.30
2019-04-20T01:08:11.199Z,59.60
2019-04-20T01:09:20.313Z,59.40
2019-04-20T01:10:28.386Z,59.40
2019-04-20T01:11:36.821Z,59.70
2019-04-20T01:12:38.409Z,59.80
2019-04-20T01:13:49.422Z,59.80
2019-04-20T01:14:53.997Z,59.70
2019-04-20T01:15:59.928Z,59.50
2019-04-20T01:17:10.987Z,59.50
2019-04-20T01:18:05.830Z,60.00
2019-04-20T01:19:10.076Z,59.70
2019-04-20T01:20:14.336Z,59.80
2019-04-20T01:21:22.991Z,60.10
2019-04-20T01:22:27.317Z,59.90
2019-04-20T01:23:38.220Z,60.00
2019-04-20T01:24:40.506Z,60.00
2019-04-20T01:25:45.083Z,60.10
2019-04-20T01:26:50.596Z,60.00
2019-04-20T01:28:10.252Z,60.30
2019-04-20T01:29:13.739Z,60.40
2019-04-20T01:30:18.694Z,60.10
2019-04-20T01:31:25.185Z,60.20
2019-04-20T01:32:31.337Z,60.40
2019-04-20T01:33:37.246Z,60.40
2019-04-20T01:34:41.632Z,60.20
2019-04-20T01:35:53.518Z,60.20
2019-04-20T01:37:01.012Z,60.40
2019-04-20T01:38:09.897Z,60.60
2019-04-20T01:39:09.408Z,60.70
2019-04-20T01:40:04.160Z,60.60
2019-04-20T01:41:07.462Z,60.70
2019-04-20T01:42:12.957Z,60.80
2019-04-20T01:43:18.356Z,60.90
2019-04-20T01:44:26.152Z,61.00
2019-04-20T01:45:34.319Z,60.80
2019-04-20T01:46:38.345Z,60.80
2019-04-20T01:47:46.201Z,60.80
2019-04-20T01:48:46.399Z,61.10
2019-04-20T01:49:57.543Z,61.20
2019-04-20T01:51:06.539Z,61.20
2019-04-20T01:52:12.979Z,61.20
2019-04-20T01:53:16.693Z,61.40
2019-04-20T01:54:31.555Z,61.30
2019-04-20T01:55:43.135Z,61.30
2019-04-20T01:56:43.425Z,61.30
2019-04-20T01:58:00.687Z,61.40
2019-04-20T01:59:30.836Z,61.80
2019-04-20T02:00:40.703Z,61.80
2019-04-20T02:02:09.971Z,61.80
2019-04-20T02:03:36.406Z,62.10
2019-04-20T02:04:58.648Z,62.10
2019-04-20T02:06:06.163Z,62.20
2019-04-20T02:07:08.261Z,62.20
2019-04-20T02:08:17.251Z,62.50
2019-04-20T02:09:21.160Z,62.50
2019-04-20T02:10:33.243Z,62.70
2019-04-20T02:11:36.182Z,62.70
2019-04-20T02:12:39.013Z,62.70
2019-04-20T02:13:47.984Z,62.80
2019-04-20T02:14:52.470Z,62.80
2019-04-20T02:15:57.815Z,63.00
2019-04-20T02:17:12.476Z,63.00
2019-04-20T02:18:20.539Z,63.00
2019-04-20T02:19:26.704Z,63.10
2019-04-20T02:20:39.003Z,63.10
2019-04-20T02:21:38.588Z,63.20
2019-04-20T02:22:46.520Z,63.30
2019-04-20T02:23:44.116Z,63.10
2019-04-20T02:24:40.728Z,63.10
2019-04-20T02:25:45.916Z,63.30
2019-04-20T02:26:51.948Z,63.30
2019-04-20T02:28:14.635Z,63.30
2019-04-20T02:29:29.355Z,63.40
2019-04-20T02:30:41.114Z,63.30
2019-04-20T02:32:02.726Z,63.50
2019-04-20T02:32:59.266Z,63.60
2019-04-20T02:34:03.537Z,63.70
2019-04-20T02:35:36.197Z,63.60
2019-04-20T02:36:55.654Z,63.60
2019-04-20T02:40:46.438Z,63.60
2019-04-20T02:41:45.007Z,63.80
2019-04-20T02:45:17.320Z,64.10
2019-04-20T02:45:57.567Z,64.10
2019-04-20T02:48:14.011Z,64.20
2019-04-20T02:49:29.200Z,64.20
2019-04-20T02:50:30.430Z,64.20
2019-04-20T02:51:42.271Z,64.40
2019-04-20T02:52:56.017Z,64.30
2019-04-20T02:53:54.714Z,64.40
2019-04-20T02:54:55.943Z,64.50
2019-04-20T02:55:55.696Z,64.50
2019-04-20T02:58:07.065Z,64.60
2019-04-20T02:59:43.218Z,64.60
2019-04-20T03:00:12.756Z,64.70
2019-04-20T03:01:41.807Z,64.70
2019-04-20T03:02:38.600Z,64.80
2019-04-20T03:03:39.072Z,64.80
2019-04-20T03:04:47.069Z,65.40
2019-04-20T03:06:01.311Z,64.60
2019-04-20T03:07:06.838Z,64.80
2019-04-20T03:08:15.387Z,64.80
2019-04-20T03:09:29.853Z,64.70
2019-04-20T03:10:34.383Z,64.50
2019-04-20T03:11:42.679Z,64.90
2019-04-20T03:12:47.807Z,65.00
2019-04-20T03:13:41.389Z,65.20
2019-04-20T03:14:47.409Z,64.80
2019-04-20T03:15:57.992Z,65.00
2019-04-20T03:17:08.690Z,65.00
2019-04-20T03:18:12.030Z,65.00
2019-04-20T03:19:14.795Z,64.90
2019-04-20T03:20:25.622Z,64.70
2019-04-20T03:21:33.257Z,64.80
2019-04-20T03:22:51.252Z,64.90
2019-04-20T03:23:52.698Z,64.90
2019-04-20T03:24:54.110Z,64.90
2019-04-20T03:26:05.488Z,65.10
2019-04-20T03:27:06.841Z,65.10
2019-04-20T03:28:18.450Z,65.20
2019-04-20T03:29:52.293Z,65.00
2019-04-20T03:31:37.100Z,65.20
2019-04-20T03:32:56.132Z,65.10
2019-04-20T03:33:53.884Z,65.10
2019-04-20T03:34:55.505Z,65.10
2019-04-20T03:35:43.608Z,65.20
2019-04-20T03:36:53.131Z,65.60
2019-04-20T03:37:52.887Z,65.50
2019-04-20T03:38:53.811Z,65.60
2019-04-20T03:39:56.730Z,65.70
2019-04-20T03:40:59.263Z,65.70
2019-04-20T03:41:55.852Z,65.80
2019-04-20T03:42:59.275Z,66.10
2019-04-20T03:44:09.928Z,66.10
2019-04-20T03:45:14.165Z,66.20
2019-04-20T03:46:19.177Z,66.10
2019-04-20T03:47:30.432Z,66.10
2019-04-20T03:48:41.482Z,66.40
2019-04-20T03:49:54.926Z,66.30
2019-04-20T03:50:57.694Z,66.50
2019-04-20T03:52:24.626Z,66.60
2019-04-20T03:53:30.876Z,66.60
2019-04-20T03:54:36.914Z,66.60
2019-04-20T03:56:10.058Z,66.50
2019-04-20T03:57:31.994Z,66.50
2019-04-20T03:58:44.116Z,66.60
2019-04-20T03:59:56.022Z,66.60
2019-04-20T04:01:05.111Z,66.70
2019-04-20T04:02:52.846Z,66.70
2019-04-20T04:04:07.855Z,66.60
2019-04-20T04:05:08.793Z,66.70
2019-04-20T04:06:11.742Z,66.70
2019-04-20T04:07:15.329Z,66.90
2019-04-20T04:08:19.192Z,66.90
2019-04-20T04:09:25.726Z,66.90
2019-04-20T04:10:31.683Z,66.90
2019-04-20T04:11:46.078Z,67.00
2019-04-20T04:13:19.034Z,67.20
2019-04-20T04:14:24.010Z,67.10
2019-04-20T04:15:29.567Z,67.20
2019-04-20T04:16:42.922Z,67.20
2019-04-20T04:17:45.091Z,67.20
2019-04-20T04:18:59.166Z,67.20
2019-04-20T04:20:03.492Z,67.30
2019-04-20T04:21:07.891Z,67.30
2019-04-20T04:22:18.069Z,67.20
2019-04-20T04:23:32.390Z,67.30
2019-04-20T04:24:29.184Z,67.20
2019-04-20T04:25:34.527Z,67.30
2019-04-20T04:26:47.420Z,67.20
2019-04-20T04:27:54.583Z,67.40
2019-04-20T04:29:00.646Z,67.70
2019-04-20T04:30:08.077Z,67.60
2019-04-20T04:31:12.073Z,67.50
2019-04-20T04:32:33.262Z,67.50
2019-04-20T04:33:46.178Z,67.60
2019-04-20T04:34:30.621Z,67.70
2019-04-20T04:35:31.548Z,67.70
2019-04-20T04:36:46.208Z,67.70
2019-04-20T04:37:52.114Z,67.70
2019-04-20T04:38:57.184Z,67.80
2019-04-20T04:40:10.577Z,67.90
2019-04-20T04:41:13.665Z,68.00
2019-04-20T04:42:19.201Z,67.80
2019-04-20T04:43:22.100Z,67.90
2019-04-20T04:44:22.132Z,67.90
2019-04-20T04:45:14.154Z,67.90
2019-04-20T04:46:16.600Z,68.50
2019-04-20T04:47:21.923Z,67.70
2019-04-20T04:48:33.001Z,67.60
2019-04-20T04:49:38.165Z,67.60
2019-04-20T04:50:48.338Z,67.60
2019-04-20T04:51:53.509Z,67.50
2019-04-20T04:53:00.667Z,67.50
2019-04-20T04:54:05.943Z,67.50
2019-04-20T04:55:12.134Z,67.70
2019-04-20T04:56:14.167Z,67.70
2019-04-20T04:57:13.739Z,67.70
2019-04-20T04:58:19.412Z,67.70
2019-04-20T04:59:23.878Z,67.60
2019-04-20T05:00:31.386Z,67.70
2019-04-20T05:01:36.997Z,67.70
2019-04-20T05:02:45.284Z,67.50
2019-04-20T05:04:11.572Z,67.70
2019-04-20T05:05:48.671Z,67.50
2019-04-20T05:06:52.160Z,67.50
2019-04-20T05:07:52.000Z,67.80
2019-04-20T05:08:51.458Z,68.10
2019-04-20T05:09:52.920Z,68.00
2019-04-20T05:10:58.204Z,68.40
2019-04-20T05:12:08.297Z,68.10
2019-04-20T05:13:09.158Z,68.00
2019-04-20T05:14:21.643Z,68.20
2019-04-20T05:15:36.422Z,68.20
2019-04-20T05:16:46.377Z,68.00
2019-04-20T05:17:53.001Z,67.80
2019-04-20T05:19:13.344Z,67.70
2019-04-20T05:20:02.589Z,67.80
2019-04-20T05:21:21.697Z,67.50
2019-04-20T05:22:34.762Z,67.30
2019-04-20T05:23:49.139Z,67.00
2019-04-20T05:25:09.062Z,67.10
2019-04-20T05:26:45.544Z,66.60
2019-04-20T05:27:54.724Z,66.40
2019-04-20T05:28:54.741Z,66.10
2019-04-20T05:29:50.788Z,65.80
2019-04-20T05:30:59.879Z,65.40
2019-04-20T05:32:08.105Z,65.40
2019-04-20T05:33:11.619Z,65.10
2019-04-20T05:34:34.062Z,64.90
2019-04-20T05:35:36.452Z,64.70
2019-04-20T05:36:46.686Z,64.70
2019-04-20T05:39:05.107Z,64.40
2019-04-20T05:40:07.445Z,64.30
2019-04-20T05:41:08.830Z,63.90
2019-04-20T05:42:19.138Z,63.50
2019-04-20T05:43:43.162Z,62.80
2019-04-20T05:45:07.647Z,62.10
2019-04-20T05:45:51.567Z,61.20
2019-04-20T05:47:09.246Z,60.80
2019-04-20T05:48:09.118Z,59.40
2019-04-20T05:49:20.659Z,59.20
2019-04-20T05:50:23.410Z,58.40
2019-04-20T05:51:29.434Z,57.80
2019-04-20T05:53:39.940Z,56.00
2019-04-20T05:54:44.636Z,55.10
2019-04-20T05:55:51.475Z,53.90
2019-04-20T05:56:56.266Z,52.90
2019-04-20T05:58:10.032Z,52.80
2019-04-20T05:59:07.322Z,52.50
2019-04-20T06:00:16.724Z,52.80
2019-04-20T06:01:20.492Z,52.70
2019-04-20T06:02:27.245Z,52.10
2019-04-20T06:03:33.586Z,50.80
2019-04-20T06:04:58.780Z,49.00
2019-04-20T06:05:52.617Z,46.70
2019-04-20T06:06:49.817Z,44.40
2019-04-20T06:07:53.649Z,42.40
2019-04-20T06:09:05.687Z,40.50
2019-04-20T06:10:13.893Z,38.50
2019-04-20T06:11:19.594Z,38.60
2019-04-20T06:12:20.008Z,37.20
2019-04-20T06:13:37.874Z,35.90
2019-04-20T06:15:12.995Z,34.70
2019-04-20T06:16:46.851Z,34.00
2019-04-20T06:18:17.724Z,35.30
2019-04-20T06:20:33.890Z,34.00
2019-04-20T06:21:52.498Z,33.80
2019-04-20T06:22:51.349Z,33.70
2019-04-20T06:24:02.593Z,33.70
2019-04-20T06:25:39.085Z,33.60
2019-04-20T06:26:44.282Z,33.10
2019-04-20T06:27:40.895Z,32.80
2019-04-20T06:28:37.838Z,32.90
2019-04-20T06:29:46.033Z,32.00
2019-04-20T06:30:48.055Z,31.70
2019-04-20T06:32:07.016Z,32.10
2019-04-20T06:34:01.444Z,32.70
2019-04-20T06:34:46.598Z,33.10
2019-04-20T06:36:07.556Z,33.30
2019-04-20T06:36:57.428Z,33.10
2019-04-20T06:38:10.158Z,33.00
2019-04-20T06:39:16.257Z,32.50
2019-04-20T06:40:37.294Z,31.60
2019-04-20T06:41:37.921Z,31.40
2019-04-20T06:42:21.968Z,31.20
2019-04-20T06:43:40.836Z,30.90
2019-04-20T06:44:57.016Z,30.80
2019-04-20T06:45:51.161Z,30.80
2019-04-20T06:47:57.584Z,31.00
2019-04-20T06:49:11.860Z,31.20
2019-04-20T06:50:08.634Z,31.60
2019-04-20T06:51:23.659Z,32.00
2019-04-20T06:52:30.834Z,31.70
2019-04-20T06:53:46.578Z,31.90
2019-04-20T06:55:11.125Z,31.80
2019-04-20T06:56:23.456Z,31.30
2019-04-20T06:57:25.501Z,31.30
2019-04-20T06:58:43.731Z,30.50
2019-04-20T07:00:42.183Z,29.90
2019-04-20T07:01:56.796Z,29.40
2019-04-20T07:02:53.977Z,29.40
2019-04-20T07:04:22.425Z,29.50
2019-04-20T07:06:29.391Z,29.60
2019-04-20T07:07:18.483Z,29.50
2019-04-20T07:08:40.893Z,29.40
2019-04-20T07:09:43.074Z,29.50
2019-04-20T07:10:38.028Z,29.30
2019-04-20T07:11:43.979Z,29.30
2019-04-20T07:12:46.713Z,29.60
2019-04-20T07:13:45.883Z,29.20
2019-04-20T07:14:50.945Z,30.00
2019-04-20T07:16:13.475Z,29.40
2019-04-20T07:19:00.999Z,29.70
2019-04-20T07:20:10.314Z,29.70
2019-04-20T07:21:37.792Z,29.30
2019-04-20T07:22:55.944Z,29.00
2019-04-20T07:24:03.214Z,28.40
2019-04-20T07:25:19.903Z,28.50
2019-04-20T07:26:16.791Z,28.30
2019-04-20T07:27:17.833Z,28.30
2019-04-20T07:28:29.160Z,28.30
2019-04-20T07:29:33.362Z,28.30
2019-04-20T07:30:35.118Z,28.40
2019-04-20T07:31:40.277Z,28.40
2019-04-20T07:32:52.489Z,27.90
2019-04-20T07:33:53.827Z,27.90
2019-04-20T07:34:57.127Z,27.30
2019-04-20T07:36:04.189Z,27.80
2019-04-20T07:37:41.973Z,26.90
2019-04-20T07:39:28.104Z,26.50
2019-04-20T07:40:28.791Z,26.20
2019-04-20T07:42:00.121Z,25.80
2019-04-20T07:42:46.818Z,25.80
2019-04-20T07:44:03.526Z,25.50
2019-04-20T07:45:01.575Z,25.30
2019-04-20T07:46:34.877Z,24.60
2019-04-20T07:47:13.840Z,25.10
2019-04-20T07:48:15.216Z,25.10
2019-04-20T07:49:18.148Z,25.10
2019-04-20T07:50:22.858Z,25.30
2019-04-20T07:51:18.249Z,25.20
2019-04-20T07:52:31.888Z,24.30
2019-04-20T07:53:36.259Z,24.90
2019-04-20T07:55:13.657Z,24.70
2019-04-20T07:56:12.883Z,24.70
2019-04-20T07:56:58.659Z,24.60
2019-04-20T07:58:01.428Z,24.70
2019-04-20T07:59:09.003Z,25.00
2019-04-20T08:00:26.125Z,24.80
2019-04-20T08:01:38.838Z,24.80
2019-04-20T08:02:57.458Z,24.70
2019-04-20T08:04:09.324Z,24.30
2019-04-20T08:05:11.026Z,24.50
2019-04-20T08:06:19.310Z,23.90
2019-04-20T08:07:18.798Z,24.00
2019-04-20T08:08:37.690Z,23.60
2019-04-20T08:09:37.922Z,23.40
2019-04-20T08:10:51.548Z,23.10
2019-04-20T08:12:02.437Z,22.60
2019-04-20T08:13:13.300Z,23.50
2019-04-20T08:14:19.288Z,22.70
2019-04-20T08:15:32.757Z,22.70
2019-04-20T08:16:30.977Z,22.30
2019-04-20T08:17:40.415Z,22.70
2019-04-20T08:18:45.781Z,22.60
2019-04-20T08:19:39.718Z,22.20
2019-04-20T08:20:46.277Z,21.50
2019-04-20T08:21:52.926Z,21.80
2019-04-20T08:22:58.626Z,22.10
2019-04-20T08:24:03.893Z,22.20
2019-04-20T08:25:05.515Z,21.60
2019-04-20T08:26:07.881Z,21.00
2019-04-20T08:27:11.431Z,20.70
2019-04-20T08:28:27.380Z,20.20
2019-04-20T08:29:47.496Z,20.50
2019-04-20T08:31:13.857Z,20.30
2019-04-20T08:32:38.736Z,19.90
2019-04-20T08:33:54.947Z,20.30
2019-04-20T08:34:59.194Z,20.60
2019-04-20T08:36:04.431Z,20.40
2019-04-20T08:37:06.004Z,20.50
2019-04-20T08:38:36.986Z,19.90
2019-04-20T08:39:30.793Z,19.80
2019-04-20T08:40:29.978Z,19.60
2019-04-20T08:41:25.107Z,18.90
2019-04-20T08:42:50.158Z,19.10
2019-04-20T08:43:57.432Z,18.90
2019-04-20T08:45:12.724Z,18.70
2019-04-20T08:45:58.683Z,18.60
2019-04-20T08:47:10.462Z,18.30
2019-04-20T08:48:19.174Z,17.70
2019-04-20T08:49:22.197Z,18.00
2019-04-20T08:50:22.526Z,18.30
2019-04-20T08:51:33.076Z,18.00
2019-04-20T08:52:55.645Z,18.40
2019-04-20T08:53:43.145Z,18.80
2019-04-20T08:54:39.882Z,18.80
2019-04-20T08:55:47.704Z,18.50
2019-04-20T08:56:46.104Z,18.00
2019-04-20T08:57:44.457Z,18.40
2019-04-20T08:58:48.738Z,18.40
2019-04-20T08:59:54.281Z,17.70
2019-04-20T09:01:03.344Z,17.90
2019-04-20T09:02:09.859Z,17.80
2019-04-20T09:03:18.133Z,17.40
2019-04-20T09:04:24.142Z,17.60
2019-04-20T09:05:34.973Z,17.50
2019-04-20T09:06:40.016Z,17.20
2019-04-20T09:07:47.662Z,17.30
2019-04-20T09:08:52.314Z,16.70
2019-04-20T09:10:12.403Z,16.30
2019-04-20T09:11:09.994Z,16.50
2019-04-20T09:12:17.915Z,16.50
2019-04-20T09:13:18.033Z,16.30
2019-04-20T09:14:21.306Z,16.20
2019-04-20T09:15:25.985Z,16.60
2019-04-20T09:16:38.887Z,16.70
2019-04-20T09:17:47.434Z,17.30
2019-04-20T09:18:56.933Z,16.70
2019-04-20T09:20:00.003Z,16.70
2019-04-20T09:21:07.736Z,16.50
2019-04-20T09:22:34.238Z,16.20
2019-04-20T09:23:45.453Z,16.60
2019-04-20T09:25:04.189Z,16.50
2019-04-20T09:26:15.043Z,16.50
2019-04-20T09:27:04.775Z,16.10
2019-04-20T09:28:22.431Z,16.50
2019-04-20T09:29:32.906Z,16.10
2019-04-20T09:30:39.543Z,16.00
2019-04-20T09:31:48.096Z,16.00
2019-04-20T09:33:09.288Z,16.00
2019-04-20T09:34:25.961Z,16.10
2019-04-20T09:35:40.855Z,16.00
2019-04-20T09:37:04.556Z,16.10
2019-04-20T09:38:10.185Z,16.20
2019-04-20T09:39:35.756Z,16.30
2019-04-20T09:40:51.103Z,15.80
2019-04-20T09:42:00.640Z,16.10
2019-04-20T09:43:08.789Z,16.30
2019-04-20T09:44:13.394Z,16.30
2019-04-20T09:45:28.749Z,16.30
2019-04-20T09:46:26.415Z,16.40
2019-04-20T09:47:36.990Z,16.60
2019-04-20T09:48:44.055Z,16.40
2019-04-20T09:49:54.874Z,16.70
2019-04-20T09:51:09.145Z,16.50
2019-04-20T09:52:06.808Z,16.70
2019-04-20T09:53:14.211Z,16.60
2019-04-20T09:54:25.790Z,16.70
2019-04-20T09:55:26.783Z,16.60
2019-04-20T09:56:34.587Z,16.80
2019-04-20T09:57:48.547Z,17.00
2019-04-20T09:58:53.397Z,17.00
2019-04-20T09:59:53.706Z,17.00
2019-04-20T10:00:58.212Z,15.90
2019-04-20T10:01:59.825Z,15.80
2019-04-20T10:02:55.464Z,15.30
2019-04-20T10:03:59.699Z,15.70
2019-04-20T10:05:05.310Z,15.50
2019-04-20T10:06:09.765Z,15.50
2019-04-20T10:07:17.968Z,15.70
2019-04-20T10:08:19.891Z,15.60
2019-04-20T10:09:30.575Z,15.70
2019-04-20T10:10:38.021Z,16.30
2019-04-20T10:11:37.292Z,15.80
2019-04-20T10:12:41.955Z,15.70
2019-04-20T10:13:46.131Z,15.60
2019-04-20T10:14:50.969Z,15.80
2019-04-20T10:15:55.566Z,16.00
2019-04-20T10:17:00.113Z,16.00
2019-04-20T10:18:05.742Z,15.80
2019-04-20T10:19:11.780Z,16.00
2019-04-20T10:20:24.356Z,16.10
2019-04-20T10:21:21.760Z,16.00
2019-04-20T10:22:26.808Z,15.90
2019-04-20T10:23:32.380Z,15.90
2019-04-20T10:24:36.969Z,16.10
2019-04-20T10:25:42.507Z,15.80
2019-04-20T10:26:48.027Z,16.10
2019-04-20T10:27:53.551Z,15.70
2019-04-20T10:28:59.181Z,15.80
2019-04-20T10:30:05.686Z,15.90
2019-04-20T10:31:10.671Z,15.70
2019-04-20T10:32:16.043Z,15.60
2019-04-20T10:33:21.719Z,15.70
2019-04-20T10:34:26.421Z,16.00
2019-04-20T10:35:31.750Z,15.50
2019-04-20T10:37:05.805Z,15.50
2019-04-20T10:38:23.294Z,15.20
2019-04-20T10:39:28.745Z,15.50
2019-04-20T10:40:46.345Z,15.20
2019-04-20T10:41:46.956Z,15.40
2019-04-20T10:42:46.081Z,15.70
2019-04-20T10:43:51.086Z,15.50
2019-04-20T10:44:58.542Z,15.60
2019-04-20T10:46:02.612Z,15.80
2019-04-20T10:47:07.245Z,15.60
2019-04-20T10:48:13.043Z,15.50
2019-04-20T10:49:17.590Z,15.10
2019-04-20T10:50:22.984Z,15.30
2019-04-20T10:51:27.249Z,15.50
2019-04-20T10:52:32.032Z,15.80
2019-04-20T10:53:36.675Z,16.30
2019-04-20T10:54:41.048Z,15.30
2019-04-20T10:55:45.361Z,15.30
2019-04-20T10:56:49.820Z,15.00
2019-04-20T10:57:55.484Z,15.00
2019-04-20T10:59:01.318Z,15.30
2019-04-20T11:00:06.013Z,15.60
2019-04-20T11:01:11.445Z,15.20
2019-04-20T11:02:16.054Z,15.90
2019-04-20T11:03:20.432Z,15.00
2019-04-20T11:04:26.328Z,15.40
2019-04-20T11:05:30.717Z,15.00
2019-04-20T11:06:36.409Z,15.70
2019-04-20T11:07:40.892Z,15.70
2019-04-20T11:08:46.556Z,15.20
2019-04-20T11:10:02.298Z,15.80
2019-04-20T11:11:07.329Z,15.20
2019-04-20T11:12:04.094Z,15.10
2019-04-20T11:13:09.603Z,14.90
2019-04-20T11:14:22.789Z,15.70
2019-04-20T11:15:20.900Z,15.50
2019-04-20T11:16:26.411Z,15.70
2019-04-20T11:17:31.779Z,15.70
2019-04-20T11:18:37.700Z,15.50
2019-04-20T11:19:43.273Z,15.30
2019-04-20T11:20:48.885Z,15.90
2019-04-20T11:21:54.334Z,15.10
2019-04-20T11:23:00.152Z,15.20
2019-04-20T11:24:04.631Z,14.50
2019-04-20T11:25:10.246Z,14.90
2019-04-20T11:26:16.067Z,14.80
2019-04-20T11:27:20.530Z,15.50
2019-04-20T11:28:25.950Z,15.10
2019-04-20T11:29:31.783Z,14.90
2019-04-20T11:30:36.286Z,15.30
2019-04-20T11:31:46.496Z,15.10
2019-04-20T11:32:46.466Z,15.40
2019-04-20T11:33:52.174Z,15.70
2019-04-20T11:34:56.742Z,15.10
2019-04-20T11:36:01.150Z,15.90
2019-04-20T11:37:06.859Z,15.50
2019-04-20T11:38:13.762Z,15.90
2019-04-20T11:39:17.096Z,15.40
2019-04-20T11:40:21.335Z,15.20
2019-04-20T11:41:29.076Z,15.40
2019-04-20T11:42:31.959Z,15.60
2019-04-20T11:43:37.634Z,15.20
2019-04-20T11:44:42.443Z,15.90
2019-04-20T11:45:46.920Z,15.60
2019-04-20T11:46:52.485Z,15.70
2019-04-20T11:47:57.822Z,15.30
2019-04-20T11:49:03.573Z,15.90
2019-04-20T11:50:09.347Z,16.00
2019-04-20T11:51:13.853Z,15.70
2019-04-20T11:52:20.279Z,15.70
2019-04-20T11:53:26.604Z,15.70
2019-04-20T11:54:30.451Z,16.00
2019-04-20T11:55:36.158Z,15.90
2019-04-20T11:56:43.864Z,15.80
2019-04-20T11:57:47.156Z,16.10
2019-04-20T11:58:51.477Z,15.90
2019-04-20T11:59:57.077Z,15.70
2019-04-20T12:01:13.091Z,16.20
2019-04-20T12:02:25.301Z,15.60
2019-04-20T12:03:34.243Z,15.90
2019-04-20T12:05:11.580Z,16.10
2019-04-20T12:06:01.651Z,16.30
2019-04-20T12:07:06.818Z,16.60
2019-04-20T12:08:11.247Z,16.00
2019-04-20T12:09:16.951Z,16.20
2019-04-20T12:10:23.983Z,16.10
2019-04-20T12:11:37.116Z,15.90
2019-04-20T12:12:41.305Z,16.00
2019-04-20T12:13:39.058Z,16.10
2019-04-20T12:14:43.301Z,16.30
2019-04-20T12:15:47.737Z,16.10
2019-04-20T12:16:53.297Z,16.10
2019-04-20T12:17:57.852Z,16.20
2019-04-20T12:19:02.278Z,16.00
2019-04-20T12:20:08.078Z,16.90
2019-04-20T12:21:12.758Z,16.80
2019-04-20T12:22:17.985Z,16.40
2019-04-20T12:23:22.444Z,16.60
2019-04-20T12:24:26.921Z,17.10
2019-04-20T12:25:34.184Z,17.00
2019-04-20T12:26:38.528Z,16.70
2019-04-20T12:27:49.709Z,16.70
2019-04-20T12:28:49.682Z,17.10
2019-04-20T12:29:54.070Z,17.40
2019-04-20T12:31:06.393Z,17.50
2019-04-20T12:32:05.910Z,17.40
2019-04-20T12:33:11.393Z,17.50
2019-04-20T12:34:16.150Z,17.70
2019-04-20T12:35:20.485Z,18.80
2019-04-20T12:36:25.969Z,18.50
2019-04-20T12:37:31.315Z,18.70
2019-04-20T12:38:36.966Z,18.80
2019-04-20T12:39:41.341Z,18.90
2019-04-20T12:40:46.164Z,19.50
2019-04-20T12:41:56.506Z,19.10
2019-04-20T12:42:57.215Z,19.80
2019-04-20T12:44:01.772Z,19.50
2019-04-20T12:45:07.960Z,19.70
2019-04-20T12:46:15.406Z,20.20
2019-04-20T12:47:19.525Z,20.50
2019-04-20T12:48:23.934Z,20.00
2019-04-20T12:49:29.512Z,20.20
2019-04-20T12:50:35.218Z,20.40
2019-04-20T12:51:47.804Z,20.70
2019-04-20T12:52:46.210Z,20.30
2019-04-20T12:53:50.813Z,20.40
2019-04-20T12:54:56.568Z,20.00
2019-04-20T12:56:02.311Z,20.20
2019-04-20T12:57:06.779Z,20.10
2019-04-20T12:58:12.507Z,20.30
2019-04-20T12:59:17.917Z,20.50
2019-04-20T13:00:23.554Z,20.70
2019-04-20T13:01:28.086Z,21.50
2019-04-20T13:02:33.485Z,20.70
2019-04-20T13:03:37.787Z,20.70
2019-04-20T13:04:42.016Z,21.10
2019-04-20T13:05:46.275Z,21.00
2019-04-20T13:06:54.827Z,20.80
2019-04-20T13:07:59.405Z,20.90
2019-04-20T13:09:04.367Z,21.40
2019-04-20T13:10:09.834Z,21.00
2019-04-20T13:11:22.550Z,21.10
2019-04-20T13:12:42.465Z,21.50
2019-04-20T13:14:12.476Z,21.80
2019-04-20T13:15:56.287Z,22.00
2019-04-20T13:17:01.999Z,21.50
2019-04-20T13:18:07.457Z,21.70
2019-04-20T13:19:13.059Z,21.60
2019-04-20T13:20:18.283Z,21.50
2019-04-20T13:21:22.996Z,21.60
2019-04-20T13:22:27.485Z,21.50
2019-04-20T13:23:33.146Z,22.30
2019-04-20T13:24:38.989Z,21.60
2019-04-20T13:25:43.382Z,22.40
2019-04-20T13:26:48.963Z,21.80
2019-04-20T13:27:54.691Z,22.20
2019-04-20T13:28:59.222Z,22.00
2019-04-20T13:30:04.853Z,22.20
2019-04-20T13:31:09.412Z,22.40
2019-04-20T13:32:13.894Z,22.20
2019-04-20T13:33:18.175Z,22.30
2019-04-20T13:34:22.795Z,22.40
2019-04-20T13:35:28.176Z,23.00
2019-04-20T13:36:32.615Z,22.40
2019-04-20T13:37:39.699Z,22.30
2019-04-20T13:38:43.974Z,22.90
2019-04-20T13:39:49.021Z,22.70
2019-04-20T13:40:53.633Z,22.50
2019-04-20T13:42:08.707Z,22.70
2019-04-20T13:43:03.847Z,23.10
2019-04-20T13:44:08.408Z,22.30
2019-04-20T13:45:12.970Z,22.20
2019-04-20T13:46:18.703Z,22.10
2019-04-20T13:47:23.209Z,23.00
2019-04-20T13:48:28.772Z,22.70
2019-04-20T13:49:33.213Z,22.90
2019-04-20T13:50:38.199Z,22.90
2019-04-20T13:51:42.603Z,22.40
2019-04-20T13:52:46.949Z,22.20
2019-04-20T13:53:51.299Z,22.20
2019-04-20T13:54:55.922Z,22.80
2019-04-20T13:56:01.406Z,22.50
2019-04-20T13:57:06.508Z,22.70
2019-04-20T13:58:29.976Z,22.90
2019-04-20T13:59:44.067Z,22.80
2019-04-20T14:00:59.246Z,23.10
2019-04-20T14:02:15.093Z,23.30
2019-04-20T14:03:20.608Z,23.30
2019-04-20T14:04:31.014Z,23.50
2019-04-20T14:05:35.244Z,22.70
2019-04-20T14:06:39.589Z,23.10
2019-04-20T14:07:44.974Z,23.00
2019-04-20T14:08:49.498Z,23.60
2019-04-20T14:09:53.715Z,23.40
2019-04-20T14:10:57.944Z,23.70
2019-04-20T14:12:14.195Z,23.20
2019-04-20T14:13:13.658Z,23.40
2019-04-20T14:14:15.182Z,23.40
2019-04-20T14:15:19.494Z,23.60
2019-04-20T14:16:25.033Z,23.30
2019-04-20T14:17:30.593Z,23.10
2019-04-20T14:18:35.380Z,24.30
2019-04-20T14:19:41.038Z,23.70
2019-04-20T14:20:45.368Z,23.30
2019-04-20T14:21:50.200Z,24.50
2019-04-20T14:22:54.770Z,23.90
2019-04-20T14:23:59.128Z,24.30
2019-04-20T14:25:04.750Z,23.80
2019-04-20T14:26:09.291Z,23.90
2019-04-20T14:27:14.887Z,24.00
2019-04-20T14:28:19.291Z,23.90
2019-04-20T14:29:25.091Z,23.80
2019-04-20T14:30:29.596Z,23.60
2019-04-20T14:31:35.170Z,23.30
2019-04-20T14:32:40.838Z,23.50
2019-04-20T14:33:46.633Z,23.80
2019-04-20T14:34:51.243Z,24.40
2019-04-20T14:35:56.883Z,24.00
2019-04-20T14:37:02.286Z,24.00
2019-04-20T14:38:07.913Z,23.60
2019-04-20T14:39:12.292Z,23.80
2019-04-20T14:40:18.590Z,24.90
2019-04-20T14:41:24.233Z,24.10
2019-04-20T14:42:41.926Z,24.10
2019-04-20T14:43:38.584Z,24.70
2019-04-20T14:44:43.710Z,24.40
2019-04-20T14:45:48.000Z,24.90